createdAt,value
2018-09-02T00:02:18.808Z,98485.77
2018-09-02T00:07:12.039Z,98488.28
2018-09-02T00:12:05.241Z,98488.52
2018-09-02T00:16:58.321Z,98483.09
2018-09-02T00:21:51.460Z,98486.22
2018-09-02T00:26:44.733Z,98483.85
2018-09-02T00:31:37.733Z,98482.77
2018-09-02T00:36:31.101Z,98481.87
2018-09-02T00:41:24.329Z,98476.96
2018-09-02T00:46:17.436Z,98482.27
2018-09-02T00:51:10.725Z,98480.50
2018-09-02T00:56:03.918Z,98481.30
2018-09-02T01:00:57.407Z,98484.69
2018-09-02T01:05:51.237Z,98491.02
2018-09-02T01:10:44.643Z,98481.39
2018-09-02T01:15:38.283Z,98481.52
2018-09-02T01:20:31.436Z,98477.77
2018-09-02T01:25:24.469Z,98478.05
2018-09-02T01:30:17.720Z,98481.72
2018-09-02T01:35:18.145Z,98476.56
2018-09-02T01:40:12.289Z,98479.06
2018-09-02T01:45:05.440Z,98471.64
2018-09-02T01:49:58.453Z,98472.09
2018-09-02T01:54:51.591Z,98467.59
2018-09-02T01:59:45.701Z,98493.27
2018-09-02T02:04:40.725Z,98485.77
2018-09-02T02:09:33.867Z,98478.73
2018-09-02T02:14:27.120Z,98479.41
2018-09-02T02:19:20.955Z,98489.32
2018-09-02T02:24:14.063Z,98491.00
2018-09-02T02:29:07.172Z,98485.56
2018-09-02T02:34:00.816Z,98485.26
2018-09-02T02:38:53.928Z,98486.30
2018-09-02T02:43:46.923Z,98497.38
2018-09-02T02:48:39.888Z,98498.87
2018-09-02T02:53:33.196Z,98499.16
2018-09-02T02:58:26.208Z,98493.99
2018-09-02T03:03:19.351Z,98515.22
2018-09-02T03:08:12.517Z,98521.66
2018-09-02T03:13:06.294Z,98519.09
2018-09-02T03:17:59.384Z,98521.58
2018-09-02T03:22:52.510Z,98528.98
2018-09-02T03:27:45.614Z,98541.24
2018-09-02T03:32:38.683Z,98530.86
2018-09-02T03:37:32.259Z,98519.98
2018-09-02T03:42:25.551Z,98527.75
2018-09-02T03:47:18.719Z,98523.05
2018-09-02T03:52:11.672Z,98522.09
2018-09-02T03:57:04.944Z,98532.22
2018-09-02T04:01:58.531Z,98528.45
2018-09-02T04:06:51.799Z,98525.52
2018-09-02T04:11:44.860Z,98537.51
2018-09-02T04:16:38.093Z,98535.96
2018-09-02T04:21:31.169Z,98525.74
2018-09-02T04:26:24.241Z,98529.85
2018-09-02T04:31:17.305Z,98537.31
2018-09-02T04:36:10.502Z,98535.72
2018-09-02T04:41:03.606Z,98537.90
2018-09-02T04:45:56.718Z,98536.02
2018-09-02T04:50:50.148Z,98538.09
2018-09-02T04:55:43.147Z,98528.05
2018-09-02T05:00:36.338Z,98533.64
2018-09-02T05:05:29.432Z,98530.08
2018-09-02T05:10:22.638Z,98530.52
2018-09-02T05:15:15.851Z,98529.59
2018-09-02T05:20:09.520Z,98535.27
2018-09-02T05:25:02.779Z,98530.74
2018-09-02T05:29:56.065Z,98529.45
2018-09-02T05:34:49.086Z,98527.33
2018-09-02T05:39:42.350Z,98521.25
2018-09-02T05:44:35.402Z,98525.95
2018-09-02T05:49:28.935Z,98525.53
2018-09-02T05:54:22.082Z,98528.18
2018-09-02T05:59:15.284Z,98520.75
2018-09-02T06:04:08.824Z,98523.80
2018-09-02T06:09:01.843Z,98519.41
2018-09-02T06:13:55.018Z,98525.93
2018-09-02T06:18:49.492Z,98533.17
2018-09-02T06:23:42.678Z,98528.35
2018-09-02T06:28:35.827Z,98544.70
2018-09-02T06:33:29.151Z,98537.63
2018-09-02T06:38:22.399Z,98540.83
2018-09-02T06:43:15.616Z,98537.84
2018-09-02T06:48:08.976Z,98538.23
2018-09-02T06:53:02.068Z,98533.16
2018-09-02T06:57:55.203Z,98543.25
2018-09-02T07:02:49.719Z,98548.67
2018-09-02T07:07:42.762Z,98536.82
2018-09-02T07:12:37.213Z,98542.55
2018-09-02T07:17:31.894Z,98534.73
2018-09-02T07:22:26.378Z,98537.14
2018-09-02T07:27:20.116Z,98534.59
2018-09-02T07:32:14.054Z,98527.02
2018-09-02T07:37:07.195Z,98516.27
2018-09-02T07:42:01.448Z,98530.40
2018-09-02T07:46:54.598Z,98531.47
2018-09-02T07:51:47.984Z,98507.77
2018-09-02T07:56:41.158Z,98515.02
2018-09-02T08:01:34.435Z,98518.84
2018-09-02T08:06:27.729Z,98513.25
2018-09-02T08:11:21.021Z,98513.77
2018-09-02T08:16:14.456Z,98501.16
2018-09-02T08:21:08.085Z,98502.95
2018-09-02T08:26:02.417Z,98490.83
2018-09-02T08:30:55.989Z,98507.84
2018-09-02T08:35:49.145Z,98501.28
2018-09-02T08:40:42.240Z,98508.64
2018-09-02T08:45:35.492Z,98516.03
2018-09-02T08:50:29.831Z,98510.52
2018-09-02T08:55:24.528Z,98503.20
2018-09-02T09:00:19.244Z,98491.19
2018-09-02T09:05:12.548Z,98491.09
2018-09-02T09:10:06.648Z,98482.15
2018-09-02T09:14:59.865Z,98482.02
2018-09-02T09:19:52.902Z,98502.36
2018-09-02T09:24:45.926Z,98480.29
2018-09-02T09:29:39.140Z,98489.22
2018-09-02T09:34:32.223Z,98495.99
2018-09-02T09:39:25.251Z,98504.84
2018-09-02T09:44:18.417Z,98495.62
2018-09-02T09:49:11.824Z,98472.44
2018-09-02T09:54:05.030Z,98478.98
2018-09-02T09:58:57.992Z,98501.16
2018-09-02T10:03:51.117Z,98488.84
2018-09-02T10:08:44.262Z,98485.14
2018-09-02T10:13:37.319Z,98475.94
2018-09-02T10:18:30.461Z,98489.17
2018-09-02T10:23:23.717Z,98497.39
2018-09-02T10:28:16.787Z,98480.83
2018-09-02T10:33:09.827Z,98477.89
2018-09-02T10:38:02.889Z,98485.74
2018-09-02T10:42:56.086Z,98478.75
2018-09-02T10:47:50.125Z,98476.25
2018-09-02T10:52:43.210Z,98467.00
2018-09-02T10:57:36.443Z,98473.84
2018-09-02T11:02:29.473Z,98470.90
2018-09-02T11:07:22.516Z,98477.48
2018-09-02T11:12:15.685Z,98461.55
2018-09-02T11:17:08.764Z,98465.98
2018-09-02T11:22:01.968Z,98464.55
2018-09-02T11:26:55.359Z,98463.08
2018-09-02T11:31:48.574Z,98470.73
2018-09-02T11:36:41.802Z,98459.34
2018-09-02T11:41:34.863Z,98465.83
2018-09-02T11:46:28.038Z,98445.92
2018-09-02T11:51:21.114Z,98453.41
2018-09-02T11:56:14.211Z,98445.55
2018-09-02T12:01:07.240Z,98445.72
2018-09-02T12:06:00.544Z,98433.13
2018-09-02T12:10:53.680Z,98441.05
2018-09-02T12:15:46.790Z,98420.45
2018-09-02T12:20:39.865Z,98427.09
2018-09-02T12:25:33.059Z,98433.08
2018-09-02T12:30:26.091Z,98433.06
2018-09-02T12:35:19.447Z,98423.65
2018-09-02T12:40:12.531Z,98416.48
2018-09-02T12:45:06.062Z,98422.87
2018-09-02T12:49:59.070Z,98414.22
2018-09-02T12:54:52.073Z,98403.45
2018-09-02T12:59:45.026Z,98406.58
2018-09-02T13:04:38.012Z,98408.31
2018-09-02T13:09:31.280Z,98395.73
2018-09-02T13:14:24.470Z,98394.66
2018-09-02T13:19:17.596Z,98403.39
2018-09-02T13:24:10.744Z,98407.87
2018-09-02T13:29:03.941Z,98412.46
2018-09-02T13:33:56.909Z,98417.25
2018-09-02T13:38:49.951Z,98403.00
2018-09-02T13:43:42.959Z,98405.41
2018-09-02T13:48:36.137Z,98417.78
2018-09-02T13:53:29.211Z,98416.34
2018-09-02T13:58:22.538Z,98408.09
2018-09-02T14:03:16.462Z,98418.58
2018-09-02T14:08:09.591Z,98409.12
2018-09-02T14:13:02.600Z,98410.13
2018-09-02T14:17:55.816Z,98402.26
2018-09-02T14:22:49.033Z,98399.70
2018-09-02T14:27:42.046Z,98407.53
2018-09-02T14:32:35.181Z,98401.15
2018-09-02T14:37:28.244Z,98402.84
2018-09-02T14:42:21.392Z,98401.02
2018-09-02T14:47:14.436Z,98408.36
2018-09-02T14:52:08.048Z,98403.59
2018-09-02T14:57:01.196Z,98395.58
2018-09-02T15:01:54.425Z,98397.59
2018-09-02T15:06:49.142Z,98395.60
2018-09-02T15:11:42.407Z,98392.77
2018-09-02T15:16:35.741Z,98391.66
2018-09-02T15:21:28.841Z,98386.80
2018-09-02T15:26:21.928Z,98387.18
2018-09-02T15:31:15.408Z,98383.10
2018-09-02T15:36:08.702Z,98391.57
2018-09-02T15:41:02.181Z,98392.22
2018-09-02T15:45:56.445Z,98394.16
2018-09-02T15:50:50.054Z,98386.80
2018-09-02T15:55:43.353Z,98401.19
2018-09-02T16:00:36.551Z,98388.85
2018-09-02T16:05:30.404Z,98384.69
2018-09-02T16:10:23.667Z,98378.58
2018-09-02T16:15:16.743Z,98377.35
2018-09-02T16:20:10.128Z,98377.75
2018-09-02T16:25:03.654Z,98388.49
2018-09-02T16:29:58.464Z,98391.84
2018-09-02T16:34:51.771Z,98407.67
2018-09-02T16:39:45.059Z,98408.81
2018-09-02T16:44:38.240Z,98411.36
2018-09-02T16:49:31.935Z,98416.46
2018-09-02T16:54:25.304Z,98414.67
2018-09-02T16:59:18.447Z,98421.77
2018-09-02T17:04:11.739Z,98435.96
2018-09-02T17:09:07.638Z,98437.27
2018-09-02T17:14:00.662Z,98441.45
2018-09-02T17:18:57.257Z,98445.14
2018-09-02T17:23:50.438Z,98450.70
2018-09-02T17:28:43.406Z,98457.55
2018-09-02T17:33:36.554Z,98462.91
2018-09-02T17:38:29.660Z,98475.70
2018-09-02T17:43:22.699Z,98480.62
2018-09-02T17:48:15.976Z,98482.88
2018-09-02T17:53:09.180Z,98489.98
2018-09-02T17:58:02.498Z,98489.56
2018-09-02T18:02:55.676Z,98494.42
2018-09-02T18:07:49.132Z,98502.11
2018-09-02T18:12:42.169Z,98510.55
2018-09-02T18:17:36.471Z,98509.28
2018-09-02T18:22:29.624Z,98508.79
2018-09-02T18:27:26.715Z,98507.09
2018-09-02T18:32:20.758Z,98505.80
2018-09-02T18:37:18.201Z,98505.59
2018-09-02T18:42:12.557Z,98502.98
2018-09-02T18:47:06.954Z,98504.17
2018-09-02T18:52:01.564Z,98495.95
2018-09-02T18:56:57.069Z,98493.94
2018-09-02T19:01:50.247Z,98490.58
2018-09-02T19:06:43.847Z,98495.48
2018-09-02T19:11:37.277Z,98499.30
2018-09-02T19:16:30.452Z,98489.97
2018-09-02T19:21:23.556Z,98499.44
2018-09-02T19:26:17.052Z,98500.56
2018-09-02T19:31:10.470Z,98501.66
2018-09-02T19:36:08.669Z,98502.55
2018-09-02T19:41:03.884Z,98509.39
2018-09-02T19:45:57.206Z,98508.56
2018-09-02T19:50:50.384Z,98505.27
2018-09-02T19:55:45.018Z,98506.07
2018-09-02T20:00:38.171Z,98503.24
2018-09-02T20:05:31.742Z,98493.58
2018-09-02T20:10:25.589Z,98495.02
2018-09-02T20:15:19.530Z,98499.70
2018-09-02T20:20:14.931Z,98497.19
2018-09-02T20:25:08.220Z,98492.66
2018-09-02T20:30:01.395Z,98494.14
2018-09-02T20:34:54.648Z,98486.27
2018-09-02T20:39:47.752Z,98484.42
2018-09-02T20:44:41.224Z,98484.66
2018-09-02T20:49:34.468Z,98482.66
2018-09-02T20:54:27.657Z,98471.45
2018-09-02T20:59:20.868Z,98474.63
2018-09-02T21:04:14.139Z,98467.69
2018-09-02T21:09:12.500Z,98467.77
2018-09-02T21:14:05.716Z,98465.92
2018-09-02T21:18:58.778Z,98472.16
2018-09-02T21:23:51.857Z,98462.34
2018-09-02T21:28:45.186Z,98467.16
2018-09-02T21:33:38.359Z,98466.22
2018-09-02T21:38:31.495Z,98460.16
2018-09-02T21:43:24.558Z,98458.34
2018-09-02T21:48:17.969Z,98463.52
2018-09-02T21:53:11.104Z,98464.70
2018-09-02T21:58:04.933Z,98464.17
2018-09-02T22:02:58.045Z,98463.16
2018-09-02T22:07:50.999Z,98453.75
2018-09-02T22:12:44.211Z,98448.98
2018-09-02T22:17:38.255Z,98437.90
2018-09-02T22:22:31.962Z,98449.54
2018-09-02T22:27:24.975Z,98436.55
2018-09-02T22:32:17.958Z,98444.12
2018-09-02T22:37:11.259Z,98433.97
2018-09-02T22:42:05.417Z,98434.97
2018-09-02T22:46:58.761Z,98420.76
2018-09-02T22:51:52.413Z,98406.73
2018-09-02T22:56:45.499Z,98409.74
2018-09-02T23:01:39.298Z,98397.19
2018-09-02T23:06:33.221Z,98394.53
2018-09-02T23:11:26.584Z,98387.88
2018-09-02T23:16:19.814Z,98383.95
2018-09-02T23:21:13.256Z,98386.06
2018-09-02T23:26:06.589Z,98387.31
2018-09-02T23:30:59.646Z,98380.83
2018-09-02T23:35:52.835Z,98374.92
2018-09-02T23:40:45.831Z,98375.44
2018-09-02T23:45:38.823Z,98374.83
2018-09-02T23:50:31.972Z,98368.73
2018-09-02T23:55:25.286Z,98362.43
